sensor_id;sensor_type;location;lat;lon;timestamp;P1;durP1;ratioP1;P2;durP2;ratioP2
15936;SDS011;9163;48.818;8.976;2023-05-13T00:00:44;5.43;;;4.70;;
15936;SDS011;9163;48.818;8.976;2023-05-13T00:03:12;5.70;;;4.33;;
15936;SDS011;9163;48.818;8.976;2023-05-13T00:05:39;6.63;;;4.23;;
15936;SDS011;9163;48.818;8.976;2023-05-13T00:08:06;4.50;;;4.10;;
15936;SDS011;9163;48.818;8.976;2023-05-13T00:10:35;5.13;;;4.63;;
15936;SDS011;9163;48.818;8.976;2023-05-13T00:13:02;5.10;;;4.53;;
15936;SDS011;9163;48.818;8.976;2023-05-13T00:15:29;4.93;;;4.43;;
15936;SDS011;9163;48.818;8.976;2023-05-13T00:17:57;5.87;;;4.33;;
15936;SDS011;9163;48.818;8.976;2023-05-13T00:20:24;5.27;;;4.47;;
15936;SDS011;9163;48.818;8.976;2023-05-13T00:22:51;6.43;;;3.70;;
15936;SDS011;9163;48.818;8.976;2023-05-13T00:25:18;4.83;;;4.27;;
15936;SDS011;9163;48.818;8.976;2023-05-13T00:27:47;6.43;;;4.00;;
15936;SDS011;9163;48.818;8.976;2023-05-13T00:30:14;5.77;;;4.10;;
15936;SDS011;9163;48.818;8.976;2023-05-13T00:32:41;8.77;;;4.33;;
15936;SDS011;9163;48.818;8.976;2023-05-13T00:35:08;5.03;;;3.63;;
15936;SDS011;9163;48.818;8.976;2023-05-13T00:37:36;7.10;;;4.23;;
15936;SDS011;9163;48.818;8.976;2023-05-13T00:40:03;4.43;;;3.50;;
15936;SDS011;9163;48.818;8.976;2023-05-13T00:42:32;7.30;;;4.23;;
15936;SDS011;9163;48.818;8.976;2023-05-13T00:45:00;5.03;;;4.10;;
15936;SDS011;9163;48.818;8.976;2023-05-13T00:47:28;5.30;;;4.40;;
15936;SDS011;9163;48.818;8.976;2023-05-13T00:49:55;4.70;;;4.20;;
15936;SDS011;9163;48.818;8.976;2023-05-13T00:52:23;4.47;;;4.07;;
15936;SDS011;9163;48.818;8.976;2023-05-13T00:54:50;4.70;;;4.03;;
15936;SDS011;9163;48.818;8.976;2023-05-13T00:57:17;4.40;;;4.00;;
15936;SDS011;9163;48.818;8.976;2023-05-13T00:59:45;4.83;;;4.07;;
15936;SDS011;9163;48.818;8.976;2023-05-13T01:02:15;4.93;;;3.60;;
15936;SDS011;9163;48.818;8.976;2023-05-13T01:04:49;4.37;;;3.70;;
15936;SDS011;9163;48.818;8.976;2023-05-13T01:07:23;4.10;;;3.67;;
15936;SDS011;9163;48.818;8.976;2023-05-13T01:10:01;4.80;;;4.30;;
15936;SDS011;9163;48.818;8.976;2023-05-13T01:12:35;4.40;;;3.83;;
15936;SDS011;9163;48.818;8.976;2023-05-13T01:15:06;6.43;;;4.13;;
15936;SDS011;9163;48.818;8.976;2023-05-13T01:17:36;7.10;;;4.33;;
15936;SDS011;9163;48.818;8.976;2023-05-13T01:20:10;4.73;;;4.23;;
15936;SDS011;9163;48.818;8.976;2023-05-13T01:22:39;5.47;;;4.10;;
15936;SDS011;9163;48.818;8.976;2023-05-13T01:25:06;5.13;;;4.10;;
15936;SDS011;9163;48.818;8.976;2023-05-13T01:27:34;5.33;;;4.27;;
15936;SDS011;9163;48.818;8.976;2023-05-13T01:30:01;4.83;;;4.07;;
15936;SDS011;9163;48.818;8.976;2023-05-13T01:32:29;4.53;;;3.80;;
15936;SDS011;9163;48.818;8.976;2023-05-13T01:34:57;5.17;;;4.37;;
15936;SDS011;9163;48.818;8.976;2023-05-13T01:37:25;5.63;;;4.03;;
15936;SDS011;9163;48.818;8.976;2023-05-13T01:39:54;7.27;;;4.13;;
15936;SDS011;9163;48.818;8.976;2023-05-13T01:42:21;5.07;;;4.30;;
15936;SDS011;9163;48.818;8.976;2023-05-13T01:44:49;4.70;;;4.20;;
15936;SDS011;9163;48.818;8.976;2023-05-13T01:47:17;6.03;;;3.90;;
15936;SDS011;9163;48.818;8.976;2023-05-13T01:49:44;5.83;;;4.20;;
15936;SDS011;9163;48.818;8.976;2023-05-13T01:52:11;4.87;;;3.83;;
15936;SDS011;9163;48.818;8.976;2023-05-13T01:54:38;5.70;;;4.37;;
15936;SDS011;9163;48.818;8.976;2023-05-13T01:57:07;4.93;;;4.40;;
15936;SDS011;9163;48.818;8.976;2023-05-13T01:59:34;4.93;;;4.43;;
15936;SDS011;9163;48.818;8.976;2023-05-13T02:02:02;5.40;;;4.40;;
15936;SDS011;9163;48.818;8.976;2023-05-13T02:04:30;5.57;;;4.80;;
15936;SDS011;9163;48.818;8.976;2023-05-13T02:06:57;5.23;;;4.60;;
15936;SDS011;9163;48.818;8.976;2023-05-13T02:09:24;5.90;;;4.37;;
15936;SDS011;9163;48.818;8.976;2023-05-13T02:11:52;6.03;;;3.87;;
15936;SDS011;9163;48.818;8.976;2023-05-13T02:14:20;4.30;;;3.90;;
15936;SDS011;9163;48.818;8.976;2023-05-13T02:16:47;4.20;;;3.77;;
15936;SDS011;9163;48.818;8.976;2023-05-13T02:19:14;4.73;;;3.93;;
15936;SDS011;9163;48.818;8.976;2023-05-13T02:21:42;4.57;;;3.80;;
15936;SDS011;9163;48.818;8.976;2023-05-13T02:24:09;5.87;;;3.83;;
15936;SDS011;9163;48.818;8.976;2023-05-13T02:26:38;4.83;;;3.83;;
15936;SDS011;9163;48.818;8.976;2023-05-13T02:29:06;5.63;;;3.93;;
15936;SDS011;9163;48.818;8.976;2023-05-13T02:31:34;5.27;;;4.07;;
15936;SDS011;9163;48.818;8.976;2023-05-13T02:34:02;5.93;;;4.00;;
15936;SDS011;9163;48.818;8.976;2023-05-13T02:36:29;4.57;;;3.93;;
15936;SDS011;9163;48.818;8.976;2023-05-13T02:38:56;4.83;;;4.10;;
15936;SDS011;9163;48.818;8.976;2023-05-13T02:41:23;4.80;;;3.50;;
15936;SDS011;9163;48.818;8.976;2023-05-13T02:43:50;5.27;;;3.70;;
15936;SDS011;9163;48.818;8.976;2023-05-13T02:46:18;4.23;;;3.83;;
15936;SDS011;9163;48.818;8.976;2023-05-13T02:48:46;4.97;;;3.87;;
15936;SDS011;9163;48.818;8.976;2023-05-13T02:51:13;5.90;;;4.17;;
15936;SDS011;9163;48.818;8.976;2023-05-13T02:53:41;4.30;;;3.90;;
15936;SDS011;9163;48.818;8.976;2023-05-13T02:56:08;4.60;;;4.20;;
15936;SDS011;9163;48.818;8.976;2023-05-13T02:58:35;5.23;;;4.10;;
15936;SDS011;9163;48.818;8.976;2023-05-13T03:01:02;7.07;;;4.30;;
15936;SDS011;9163;48.818;8.976;2023-05-13T03:03:29;5.17;;;4.17;;
15936;SDS011;9163;48.818;8.976;2023-05-13T03:05:58;6.73;;;4.57;;
15936;SDS011;9163;48.818;8.976;2023-05-13T03:08:25;5.53;;;4.37;;
15936;SDS011;9163;48.818;8.976;2023-05-13T03:10:52;5.70;;;4.27;;
15936;SDS011;9163;48.818;8.976;2023-05-13T03:13:19;5.00;;;4.50;;
15936;SDS011;9163;48.818;8.976;2023-05-13T03:15:47;4.63;;;4.03;;
15936;SDS011;9163;48.818;8.976;2023-05-13T03:18:14;4.83;;;4.10;;
15936;SDS011;9163;48.818;8.976;2023-05-13T03:20:41;4.27;;;3.87;;
15936;SDS011;9163;48.818;8.976;2023-05-13T03:23:10;6.43;;;4.37;;
15936;SDS011;9163;48.818;8.976;2023-05-13T03:25:38;4.87;;;4.07;;
15936;SDS011;9163;48.818;8.976;2023-05-13T03:28:07;5.10;;;3.97;;
15936;SDS011;9163;48.818;8.976;2023-05-13T03:30:34;6.30;;;4.10;;
15936;SDS011;9163;48.818;8.976;2023-05-13T03:33:01;5.23;;;4.27;;
15936;SDS011;9163;48.818;8.976;2023-05-13T03:35:29;4.67;;;4.00;;
15936;SDS011;9163;48.818;8.976;2023-05-13T03:37:56;5.60;;;4.20;;
15936;SDS011;9163;48.818;8.976;2023-05-13T03:40:25;5.43;;;4.17;;
15936;SDS011;9163;48.818;8.976;2023-05-13T03:42:52;4.73;;;4.23;;
15936;SDS011;9163;48.818;8.976;2023-05-13T03:45:19;5.07;;;4.27;;
15936;SDS011;9163;48.818;8.976;2023-05-13T03:47:46;4.63;;;4.10;;
15936;SDS011;9163;48.818;8.976;2023-05-13T03:50:14;4.53;;;3.93;;
15936;SDS011;9163;48.818;8.976;2023-05-13T03:52:41;6.20;;;4.37;;
15936;SDS011;9163;48.818;8.976;2023-05-13T03:55:09;5.27;;;4.00;;
15936;SDS011;9163;48.818;8.976;2023-05-13T03:57:37;4.70;;;4.00;;
15936;SDS011;9163;48.818;8.976;2023-05-13T04:00:05;4.63;;;4.00;;
15936;SDS011;9163;48.818;8.976;2023-05-13T04:02:33;5.23;;;4.27;;
15936;SDS011;9163;48.818;8.976;2023-05-13T04:05:01;5.43;;;3.83;;
15936;SDS011;9163;48.818;8.976;2023-05-13T04:07:30;6.00;;;3.77;;
15936;SDS011;9163;48.818;8.976;2023-05-13T04:09:57;4.60;;;4.17;;
15936;SDS011;9163;48.818;8.976;2023-05-13T04:12:24;5.87;;;3.60;;
15936;SDS011;9163;48.818;8.976;2023-05-13T04:14:53;6.87;;;4.10;;
15936;SDS011;9163;48.818;8.976;2023-05-13T04:17:20;5.37;;;4.00;;
15936;SDS011;9163;48.818;8.976;2023-05-13T04:19:47;7.67;;;4.40;;
15936;SDS011;9163;48.818;8.976;2023-05-13T04:22:18;5.90;;;4.17;;
15936;SDS011;9163;48.818;8.976;2023-05-13T04:24:45;5.03;;;4.50;;
15936;SDS011;9163;48.818;8.976;2023-05-13T04:27:14;5.40;;;4.40;;
15936;SDS011;9163;48.818;8.976;2023-05-13T04:29:41;4.13;;;3.73;;
15936;SDS011;9163;48.818;8.976;2023-05-13T04:32:10;5.60;;;3.67;;
15936;SDS011;9163;48.818;8.976;2023-05-13T04:34:40;4.93;;;4.30;;
15936;SDS011;9163;48.818;8.976;2023-05-13T04:37:07;4.50;;;4.10;;
15936;SDS011;9163;48.818;8.976;2023-05-13T04:39:34;6.43;;;4.37;;
15936;SDS011;9163;48.818;8.976;2023-05-13T04:42:01;6.10;;;4.00;;
15936;SDS011;9163;48.818;8.976;2023-05-13T04:44:29;4.80;;;4.07;;
15936;SDS011;9163;48.818;8.976;2023-05-13T04:46:56;6.03;;;4.10;;
15936;SDS011;9163;48.818;8.976;2023-05-13T04:49:25;5.30;;;4.27;;
15936;SDS011;9163;48.818;8.976;2023-05-13T04:51:52;4.90;;;3.77;;
15936;SDS011;9163;48.818;8.976;2023-05-13T04:54:19;5.10;;;4.10;;
15936;SDS011;9163;48.818;8.976;2023-05-13T04:56:47;6.40;;;4.10;;
15936;SDS011;9163;48.818;8.976;2023-05-13T04:59:14;5.43;;;3.90;;
15936;SDS011;9163;48.818;8.976;2023-05-13T05:01:41;4.20;;;3.60;;
15936;SDS011;9163;48.818;8.976;2023-05-13T05:04:08;5.60;;;3.93;;
15936;SDS011;9163;48.818;8.976;2023-05-13T05:06:37;5.67;;;3.83;;
15936;SDS011;9163;48.818;8.976;2023-05-13T05:09:04;5.60;;;3.80;;
15936;SDS011;9163;48.818;8.976;2023-05-13T05:11:31;4.87;;;3.87;;
15936;SDS011;9163;48.818;8.976;2023-05-13T05:13:59;5.60;;;3.87;;
15936;SDS011;9163;48.818;8.976;2023-05-13T05:16:26;4.60;;;3.87;;
15936;SDS011;9163;48.818;8.976;2023-05-13T05:18:53;4.43;;;3.53;;
15936;SDS011;9163;48.818;8.976;2023-05-13T05:21:20;4.60;;;3.93;;
15936;SDS011;9163;48.818;8.976;2023-05-13T05:23:49;5.50;;;3.97;;
15936;SDS011;9163;48.818;8.976;2023-05-13T05:26:16;4.53;;;4.03;;
15936;SDS011;9163;48.818;8.976;2023-05-13T05:28:44;5.67;;;4.17;;
15936;SDS011;9163;48.818;8.976;2023-05-13T05:31:11;6.13;;;4.07;;
15936;SDS011;9163;48.818;8.976;2023-05-13T05:33:39;4.10;;;3.70;;
15936;SDS011;9163;48.818;8.976;2023-05-13T05:36:06;4.27;;;3.87;;
15936;SDS011;9163;48.818;8.976;2023-05-13T05:38:34;4.97;;;3.90;;
15936;SDS011;9163;48.818;8.976;2023-05-13T05:41:03;4.57;;;3.83;;
15936;SDS011;9163;48.818;8.976;2023-05-13T05:43:30;4.03;;;3.43;;
15936;SDS011;9163;48.818;8.976;2023-05-13T05:45:57;5.23;;;3.83;;
15936;SDS011;9163;48.818;8.976;2023-05-13T05:48:25;3.97;;;3.43;;
15936;SDS011;9163;48.818;8.976;2023-05-13T05:50:52;4.07;;;3.67;;
15936;SDS011;9163;48.818;8.976;2023-05-13T05:53:20;5.13;;;3.80;;
15936;SDS011;9163;48.818;8.976;2023-05-13T05:55:47;5.47;;;3.80;;
15936;SDS011;9163;48.818;8.976;2023-05-13T05:58:15;4.47;;;4.07;;
15936;SDS011;9163;48.818;8.976;2023-05-13T06:00:43;5.37;;;3.73;;
15936;SDS011;9163;48.818;8.976;2023-05-13T06:03:10;3.90;;;3.50;;
15936;SDS011;9163;48.818;8.976;2023-05-13T06:05:37;6.23;;;4.00;;
15936;SDS011;9163;48.818;8.976;2023-05-13T06:08:05;4.13;;;3.63;;
15936;SDS011;9163;48.818;8.976;2023-05-13T06:10:32;5.33;;;4.30;;
15936;SDS011;9163;48.818;8.976;2023-05-13T06:12:59;5.63;;;4.20;;
15936;SDS011;9163;48.818;8.976;2023-05-13T06:15:28;4.07;;;3.73;;
15936;SDS011;9163;48.818;8.976;2023-05-13T06:17:55;5.87;;;4.20;;
15936;SDS011;9163;48.818;8.976;2023-05-13T06:20:23;4.17;;;3.77;;
15936;SDS011;9163;48.818;8.976;2023-05-13T06:22:50;4.40;;;4.00;;
15936;SDS011;9163;48.818;8.976;2023-05-13T06:25:17;7.67;;;3.93;;
15936;SDS011;9163;48.818;8.976;2023-05-13T06:27:44;5.03;;;3.90;;
15936;SDS011;9163;48.818;8.976;2023-05-13T06:30:12;4.57;;;4.07;;
15936;SDS011;9163;48.818;8.976;2023-05-13T06:32:40;4.70;;;3.60;;
15936;SDS011;9163;48.818;8.976;2023-05-13T06:35:08;4.50;;;4.10;;
15936;SDS011;9163;48.818;8.976;2023-05-13T06:37:35;5.53;;;4.03;;
15936;SDS011;9163;48.818;8.976;2023-05-13T06:40:02;6.87;;;4.00;;
15936;SDS011;9163;48.818;8.976;2023-05-13T06:42:30;4.70;;;3.87;;
15936;SDS011;9163;48.818;8.976;2023-05-13T06:44:57;6.10;;;4.50;;
15936;SDS011;9163;48.818;8.976;2023-05-13T06:47:25;6.17;;;4.17;;
15936;SDS011;9163;48.818;8.976;2023-05-13T06:49:53;6.77;;;3.90;;
15936;SDS011;9163;48.818;8.976;2023-05-13T06:52:20;6.73;;;4.60;;
15936;SDS011;9163;48.818;8.976;2023-05-13T06:54:48;4.83;;;4.33;;
15936;SDS011;9163;48.818;8.976;2023-05-13T06:57:15;5.23;;;4.07;;
15936;SDS011;9163;48.818;8.976;2023-05-13T06:59:42;4.93;;;4.43;;
15936;SDS011;9163;48.818;8.976;2023-05-13T07:02:10;6.83;;;4.10;;
15936;SDS011;9163;48.818;8.976;2023-05-13T07:04:37;4.53;;;4.13;;
15936;SDS011;9163;48.818;8.976;2023-05-13T07:07:06;4.80;;;3.90;;
15936;SDS011;9163;48.818;8.976;2023-05-13T07:09:33;4.83;;;3.93;;
15936;SDS011;9163;48.818;8.976;2023-05-13T07:12:00;4.67;;;4.07;;
15936;SDS011;9163;48.818;8.976;2023-05-13T07:14:27;4.87;;;3.87;;
15936;SDS011;9163;48.818;8.976;2023-05-13T07:16:54;4.77;;;4.00;;
15936;SDS011;9163;48.818;8.976;2023-05-13T07:19:23;4.67;;;3.90;;
15936;SDS011;9163;48.818;8.976;2023-05-13T07:21:50;5.33;;;3.83;;
15936;SDS011;9163;48.818;8.976;2023-05-13T07:24:18;5.13;;;3.80;;
15936;SDS011;9163;48.818;8.976;2023-05-13T07:26:46;5.33;;;3.70;;
15936;SDS011;9163;48.818;8.976;2023-05-13T07:29:13;6.23;;;3.83;;
15936;SDS011;9163;48.818;8.976;2023-05-13T07:31:40;4.63;;;3.63;;
15936;SDS011;9163;48.818;8.976;2023-05-13T07:34:07;4.20;;;3.80;;
15936;SDS011;9163;48.818;8.976;2023-05-13T07:36:35;5.43;;;3.70;;
15936;SDS011;9163;48.818;8.976;2023-05-13T07:39:02;6.70;;;4.20;;
15936;SDS011;9163;48.818;8.976;2023-05-13T07:41:30;7.80;;;3.90;;
15936;SDS011;9163;48.818;8.976;2023-05-13T07:43:58;5.73;;;4.00;;
15936;SDS011;9163;48.818;8.976;2023-05-13T07:46:25;5.73;;;4.00;;
15936;SDS011;9163;48.818;8.976;2023-05-13T07:48:52;5.97;;;3.80;;
15936;SDS011;9163;48.818;8.976;2023-05-13T07:51:19;5.23;;;3.90;;
15936;SDS011;9163;48.818;8.976;2023-05-13T07:53:46;6.83;;;4.00;;
15936;SDS011;9163;48.818;8.976;2023-05-13T07:56:14;5.73;;;3.77;;
15936;SDS011;9163;48.818;8.976;2023-05-13T07:58:42;6.23;;;3.90;;
15936;SDS011;9163;48.818;8.976;2023-05-13T08:01:10;4.57;;;3.80;;
15936;SDS011;9163;48.818;8.976;2023-05-13T08:03:37;4.87;;;3.77;;
15936;SDS011;9163;48.818;8.976;2023-05-13T08:06:05;5.37;;;3.67;;
15936;SDS011;9163;48.818;8.976;2023-05-13T08:08:32;5.83;;;4.00;;
15936;SDS011;9163;48.818;8.976;2023-05-13T08:10:59;4.33;;;3.73;;
15936;SDS011;9163;48.818;8.976;2023-05-13T08:13:26;4.93;;;4.13;;
15936;SDS011;9163;48.818;8.976;2023-05-13T08:15:55;5.63;;;3.90;;
15936;SDS011;9163;48.818;8.976;2023-05-13T08:18:25;6.30;;;4.00;;
15936;SDS011;9163;48.818;8.976;2023-05-13T08:20:52;6.23;;;4.20;;
15936;SDS011;9163;48.818;8.976;2023-05-13T08:23:19;4.77;;;3.73;;
15936;SDS011;9163;48.818;8.976;2023-05-13T08:25:47;4.50;;;3.97;;
15936;SDS011;9163;48.818;8.976;2023-05-13T08:28:15;6.60;;;3.90;;
15936;SDS011;9163;48.818;8.976;2023-05-13T08:30:42;4.37;;;3.87;;
15936;SDS011;9163;48.818;8.976;2023-05-13T08:33:11;5.10;;;4.07;;
15936;SDS011;9163;48.818;8.976;2023-05-13T08:35:38;4.03;;;3.63;;
15936;SDS011;9163;48.818;8.976;2023-05-13T08:38:05;4.93;;;3.67;;
15936;SDS011;9163;48.818;8.976;2023-05-13T08:40:32;4.43;;;3.73;;
15936;SDS011;9163;48.818;8.976;2023-05-13T08:43:00;4.67;;;3.97;;
15936;SDS011;9163;48.818;8.976;2023-05-13T08:45:29;5.50;;;4.10;;
15936;SDS011;9163;48.818;8.976;2023-05-13T08:48:00;7.60;;;4.00;;
15936;SDS011;9163;48.818;8.976;2023-05-13T08:50:29;5.80;;;4.20;;
15936;SDS011;9163;48.818;8.976;2023-05-13T08:52:57;4.00;;;3.60;;
15936;SDS011;9163;48.818;8.976;2023-05-13T08:55:25;5.00;;;3.83;;
15936;SDS011;9163;48.818;8.976;2023-05-13T08:57:52;6.03;;;3.77;;
15936;SDS011;9163;48.818;8.976;2023-05-13T09:00:20;5.13;;;4.20;;
15936;SDS011;9163;48.818;8.976;2023-05-13T09:02:48;5.83;;;4.10;;
15936;SDS011;9163;48.818;8.976;2023-05-13T09:05:15;5.67;;;4.20;;
15936;SDS011;9163;48.818;8.976;2023-05-13T09:07:44;5.20;;;4.20;;
15936;SDS011;9163;48.818;8.976;2023-05-13T09:10:11;5.43;;;4.17;;
15936;SDS011;9163;48.818;8.976;2023-05-13T09:12:42;5.07;;;4.00;;
15936;SDS011;9163;48.818;8.976;2023-05-13T09:15:11;5.63;;;4.10;;
15936;SDS011;9163;48.818;8.976;2023-05-13T09:17:40;18.37;;;6.80;;
15936;SDS011;9163;48.818;8.976;2023-05-13T09:20:09;18.53;;;7.70;;
15936;SDS011;9163;48.818;8.976;2023-05-13T09:22:40;44.00;;;13.30;;
15936;SDS011;9163;48.818;8.976;2023-05-13T09:25:12;23.93;;;9.27;;
15936;SDS011;9163;48.818;8.976;2023-05-13T09:27:41;14.80;;;6.53;;
15936;SDS011;9163;48.818;8.976;2023-05-13T09:30:09;13.33;;;6.60;;
15936;SDS011;9163;48.818;8.976;2023-05-13T09:32:37;8.77;;;5.17;;
15936;SDS011;9163;48.818;8.976;2023-05-13T09:35:09;34.43;;;10.40;;
15936;SDS011;9163;48.818;8.976;2023-05-13T09:37:38;7.17;;;4.43;;
15936;SDS011;9163;48.818;8.976;2023-05-13T09:40:09;6.33;;;4.30;;
15936;SDS011;9163;48.818;8.976;2023-05-13T09:42:39;5.73;;;4.70;;
15936;SDS011;9163;48.818;8.976;2023-05-13T09:45:08;5.07;;;4.40;;
15936;SDS011;9163;48.818;8.976;2023-05-13T09:47:36;5.80;;;4.30;;
15936;SDS011;9163;48.818;8.976;2023-05-13T09:50:04;60.80;;;11.30;;
15936;SDS011;9163;48.818;8.976;2023-05-13T09:52:32;8.07;;;4.43;;
15936;SDS011;9163;48.818;8.976;2023-05-13T09:55:01;4.53;;;4.10;;
15936;SDS011;9163;48.818;8.976;2023-05-13T09:57:31;5.90;;;4.20;;
15936;SDS011;9163;48.818;8.976;2023-05-13T09:59:58;5.70;;;3.63;;
15936;SDS011;9163;48.818;8.976;2023-05-13T10:02:29;5.30;;;3.90;;
15936;SDS011;9163;48.818;8.976;2023-05-13T10:04:57;6.77;;;3.73;;
15936;SDS011;9163;48.818;8.976;2023-05-13T10:07:25;5.27;;;3.83;;
15936;SDS011;9163;48.818;8.976;2023-05-13T10:09:56;5.73;;;3.83;;
15936;SDS011;9163;48.818;8.976;2023-05-13T10:12:26;5.60;;;4.30;;
15936;SDS011;9163;48.818;8.976;2023-05-13T10:14:57;4.37;;;3.97;;
15936;SDS011;9163;48.818;8.976;2023-05-13T10:17:25;4.50;;;3.70;;
15936;SDS011;9163;48.818;8.976;2023-05-13T10:19:53;5.73;;;3.97;;
15936;SDS011;9163;48.818;8.976;2023-05-13T10:22:23;4.00;;;3.60;;
15936;SDS011;9163;48.818;8.976;2023-05-13T10:24:54;4.73;;;3.90;;
15936;SDS011;9163;48.818;8.976;2023-05-13T10:27:27;5.20;;;4.23;;
15936;SDS011;9163;48.818;8.976;2023-05-13T10:29:56;4.80;;;4.20;;
15936;SDS011;9163;48.818;8.976;2023-05-13T10:32:26;4.50;;;3.90;;
15936;SDS011;9163;48.818;8.976;2023-05-13T10:34:56;6.30;;;4.03;;
15936;SDS011;9163;48.818;8.976;2023-05-13T10:43:35;4.47;;;3.80;;
15936;SDS011;9163;48.818;8.976;2023-05-13T10:46:05;5.47;;;4.40;;
15936;SDS011;9163;48.818;8.976;2023-05-13T10:48:40;4.07;;;3.67;;
15936;SDS011;9163;48.818;8.976;2023-05-13T10:51:12;3.53;;;3.20;;
15936;SDS011;9163;48.818;8.976;2023-05-13T10:53:42;4.03;;;3.30;;
15936;SDS011;9163;48.818;8.976;2023-05-13T10:56:11;4.33;;;3.93;;
15936;SDS011;9163;48.818;8.976;2023-05-13T10:58:39;3.83;;;3.43;;
15936;SDS011;9163;48.818;8.976;2023-05-13T11:01:15;5.27;;;3.70;;
15936;SDS011;9163;48.818;8.976;2023-05-13T11:03:50;3.97;;;3.30;;
15936;SDS011;9163;48.818;8.976;2023-05-13T11:06:19;3.90;;;3.53;;
15936;SDS011;9163;48.818;8.976;2023-05-13T11:08:48;4.87;;;3.57;;
15936;SDS011;9163;48.818;8.976;2023-05-13T11:11:27;4.30;;;3.90;;
15936;SDS011;9163;48.818;8.976;2023-05-13T11:14:07;6.13;;;3.63;;
15936;SDS011;9163;48.818;8.976;2023-05-13T11:16:45;4.57;;;4.07;;
15936;SDS011;9163;48.818;8.976;2023-05-13T11:19:18;4.20;;;3.77;;
15936;SDS011;9163;48.818;8.976;2023-05-13T11:21:47;5.40;;;4.00;;
15936;SDS011;9163;48.818;8.976;2023-05-13T11:24:17;4.53;;;4.00;;
15936;SDS011;9163;48.818;8.976;2023-05-13T11:26:46;6.80;;;3.90;;
15936;SDS011;9163;48.818;8.976;2023-05-13T11:29:25;4.90;;;4.40;;
15936;SDS011;9163;48.818;8.976;2023-05-13T11:31:55;5.93;;;4.17;;
15936;SDS011;9163;48.818;8.976;2023-05-13T11:34:23;4.73;;;4.10;;
15936;SDS011;9163;48.818;8.976;2023-05-13T11:36:54;5.37;;;4.37;;
15936;SDS011;9163;48.818;8.976;2023-05-13T11:39:23;5.33;;;4.30;;
15936;SDS011;9163;48.818;8.976;2023-05-13T11:41:52;5.63;;;3.97;;
15936;SDS011;9163;48.818;8.976;2023-05-13T11:44:22;5.30;;;4.43;;
15936;SDS011;9163;48.818;8.976;2023-05-13T11:46:51;4.77;;;4.20;;
15936;SDS011;9163;48.818;8.976;2023-05-13T11:49:31;4.70;;;4.30;;
15936;SDS011;9163;48.818;8.976;2023-05-13T11:51:58;4.97;;;4.20;;
15936;SDS011;9163;48.818;8.976;2023-05-13T11:54:26;4.67;;;4.20;;
15936;SDS011;9163;48.818;8.976;2023-05-13T11:56:54;5.00;;;3.80;;
15936;SDS011;9163;48.818;8.976;2023-05-13T11:59:21;4.33;;;3.80;;
15936;SDS011;9163;48.818;8.976;2023-05-13T12:01:58;4.57;;;3.70;;
15936;SDS011;9163;48.818;8.976;2023-05-13T12:04:26;4.37;;;3.60;;
15936;SDS011;9163;48.818;8.976;2023-05-13T12:06:56;4.73;;;3.90;;
15936;SDS011;9163;48.818;8.976;2023-05-13T12:09:23;5.13;;;3.73;;
15936;SDS011;9163;48.818;8.976;2023-05-13T12:11:51;3.83;;;3.43;;
15936;SDS011;9163;48.818;8.976;2023-05-13T12:14:19;3.10;;;2.80;;
15936;SDS011;9163;48.818;8.976;2023-05-13T12:16:47;4.00;;;3.60;;
15936;SDS011;9163;48.818;8.976;2023-05-13T12:19:15;4.27;;;3.10;;
15936;SDS011;9163;48.818;8.976;2023-05-13T12:21:42;3.17;;;2.83;;
15936;SDS011;9163;48.818;8.976;2023-05-13T12:24:17;3.07;;;2.40;;
15936;SDS011;9163;48.818;8.976;2023-05-13T12:26:44;2.90;;;2.53;;
15936;SDS011;9163;48.818;8.976;2023-05-13T12:29:12;2.80;;;2.60;;
15936;SDS011;9163;48.818;8.976;2023-05-13T12:31:40;3.00;;;2.70;;
15936;SDS011;9163;48.818;8.976;2023-05-13T12:34:08;2.97;;;2.70;;
15936;SDS011;9163;48.818;8.976;2023-05-13T12:36:36;3.20;;;2.73;;
15936;SDS011;9163;48.818;8.976;2023-05-13T12:39:05;3.47;;;2.60;;
15936;SDS011;9163;48.818;8.976;2023-05-13T12:41:35;5.93;;;2.73;;
15936;SDS011;9163;48.818;8.976;2023-05-13T12:44:03;3.07;;;2.77;;
15936;SDS011;9163;48.818;8.976;2023-05-13T12:46:33;2.27;;;2.07;;
15936;SDS011;9163;48.818;8.976;2023-05-13T12:49:01;2.30;;;2.10;;
15936;SDS011;9163;48.818;8.976;2023-05-13T12:51:29;2.23;;;1.97;;
15936;SDS011;9163;48.818;8.976;2023-05-13T12:53:57;2.70;;;2.40;;
15936;SDS011;9163;48.818;8.976;2023-05-13T12:56:25;2.60;;;2.40;;
15936;SDS011;9163;48.818;8.976;2023-05-13T12:58:53;2.60;;;2.40;;
15936;SDS011;9163;48.818;8.976;2023-05-13T13:01:21;3.20;;;2.30;;
15936;SDS011;9163;48.818;8.976;2023-05-13T13:03:48;2.60;;;2.40;;
15936;SDS011;9163;48.818;8.976;2023-05-13T13:06:16;2.47;;;2.27;;
15936;SDS011;9163;48.818;8.976;2023-05-13T13:08:44;3.50;;;3.10;;
15936;SDS011;9163;48.818;8.976;2023-05-13T13:11:11;3.87;;;3.07;;
15936;SDS011;9163;48.818;8.976;2023-05-13T13:13:43;3.17;;;2.80;;
15936;SDS011;9163;48.818;8.976;2023-05-13T13:16:11;4.00;;;3.60;;
15936;SDS011;9163;48.818;8.976;2023-05-13T13:18:39;3.93;;;3.10;;
15936;SDS011;9163;48.818;8.976;2023-05-13T13:21:06;5.13;;;3.20;;
15936;SDS011;9163;48.818;8.976;2023-05-13T13:23:33;4.43;;;3.40;;
15936;SDS011;9163;48.818;8.976;2023-05-13T13:26:00;3.53;;;3.00;;
15936;SDS011;9163;48.818;8.976;2023-05-13T13:28:28;3.33;;;3.03;;
15936;SDS011;9163;48.818;8.976;2023-05-13T13:30:56;3.10;;;2.77;;
15936;SDS011;9163;48.818;8.976;2023-05-13T13:33:25;4.40;;;3.03;;
15936;SDS011;9163;48.818;8.976;2023-05-13T13:35:53;4.27;;;3.80;;
15936;SDS011;9163;48.818;8.976;2023-05-13T13:38:20;3.50;;;3.20;;
15936;SDS011;9163;48.818;8.976;2023-05-13T13:40:47;3.50;;;3.10;;
15936;SDS011;9163;48.818;8.976;2023-05-13T13:43:14;3.40;;;3.10;;
15936;SDS011;9163;48.818;8.976;2023-05-13T13:45:41;4.00;;;3.10;;
15936;SDS011;9163;48.818;8.976;2023-05-13T13:48:09;3.33;;;3.03;;
15936;SDS011;9163;48.818;8.976;2023-05-13T13:50:37;3.53;;;2.80;;
15936;SDS011;9163;48.818;8.976;2023-05-13T13:53:04;3.20;;;2.90;;
15936;SDS011;9163;48.818;8.976;2023-05-13T13:55:32;4.10;;;3.70;;
15936;SDS011;9163;48.818;8.976;2023-05-13T13:57:59;3.30;;;3.00;;
15936;SDS011;9163;48.818;8.976;2023-05-13T14:00:26;3.47;;;3.00;;
15936;SDS011;9163;48.818;8.976;2023-05-13T14:02:53;5.10;;;2.87;;
15936;SDS011;9163;48.818;8.976;2023-05-13T14:05:21;3.47;;;2.93;;
15936;SDS011;9163;48.818;8.976;2023-05-13T14:07:49;4.47;;;3.00;;
15936;SDS011;9163;48.818;8.976;2023-05-13T14:10:18;3.43;;;2.93;;
15936;SDS011;9163;48.818;8.976;2023-05-13T14:12:45;3.23;;;2.93;;
15936;SDS011;9163;48.818;8.976;2023-05-13T14:15:13;3.00;;;2.70;;
15936;SDS011;9163;48.818;8.976;2023-05-13T14:17:40;5.20;;;3.57;;
15936;SDS011;9163;48.818;8.976;2023-05-13T14:20:07;3.77;;;3.47;;
15936;SDS011;9163;48.818;8.976;2023-05-13T14:22:36;4.30;;;3.70;;
15936;SDS011;9163;48.818;8.976;2023-05-13T14:25:05;4.07;;;3.53;;
15936;SDS011;9163;48.818;8.976;2023-05-13T14:27:34;4.03;;;3.33;;
15936;SDS011;9163;48.818;8.976;2023-05-13T14:30:02;4.03;;;3.40;;
15936;SDS011;9163;48.818;8.976;2023-05-13T14:32:29;4.37;;;3.63;;
15936;SDS011;9163;48.818;8.976;2023-05-13T14:34:56;4.10;;;3.70;;
15936;SDS011;9163;48.818;8.976;2023-05-13T14:37:24;5.20;;;3.77;;
15936;SDS011;9163;48.818;8.976;2023-05-13T14:39:51;4.47;;;3.83;;
15936;SDS011;9163;48.818;8.976;2023-05-13T14:42:20;4.07;;;3.60;;
15936;SDS011;9163;48.818;8.976;2023-05-13T14:44:47;4.37;;;3.77;;
15936;SDS011;9163;48.818;8.976;2023-05-13T14:47:14;4.00;;;3.63;;
15936;SDS011;9163;48.818;8.976;2023-05-13T14:49:41;3.17;;;2.93;;
15936;SDS011;9163;48.818;8.976;2023-05-13T14:52:08;3.47;;;3.17;;
15936;SDS011;9163;48.818;8.976;2023-05-13T14:54:36;4.47;;;3.53;;
15936;SDS011;9163;48.818;8.976;2023-05-13T14:57:03;4.27;;;3.80;;
15936;SDS011;9163;48.818;8.976;2023-05-13T14:59:33;4.00;;;3.60;;
15936;SDS011;9163;48.818;8.976;2023-05-13T15:02:00;4.83;;;3.90;;
15936;SDS011;9163;48.818;8.976;2023-05-13T15:04:28;4.53;;;4.00;;
15936;SDS011;9163;48.818;8.976;2023-05-13T15:06:55;4.17;;;3.77;;
15936;SDS011;9163;48.818;8.976;2023-05-13T15:09:23;4.60;;;4.00;;
15936;SDS011;9163;48.818;8.976;2023-05-13T15:11:50;5.97;;;3.77;;